TimeAKST,TemperatureF,Dew PointF,Humidity,Sea Level PressureIn,VisibilityMPH,Wind Direction,Wind SpeedMPH,Gust SpeedMPH,PrecipitationIn,Events,Conditions,WindDirDegrees,DateUTC
12:09 AM,15.8,10.4,79,29.84,1.8,WNW,8.1,-,0.00,Snow,Light Snow,300,2012-11-30 09:09:00
12:25 AM,15.8,10.4,79,29.84,2.0,WNW,11.5,-,0.00,Snow,Light Snow,300,2012-11-30 09:25:00
12:41 AM,15.8,10.4,79,29.84,3.0,NW,8.1,-,0.00,Snow,Light Snow,320,2012-11-30 09:41:00
12:54 AM,15.1,10.9,84,29.85,5.0,NW,9.2,-,0.00,Snow,Light Snow,310,2012-11-30 09:54:00
1:52 AM,15.8,10.4,79,29.83,7.0,WNW,10.4,-,0.00,Snow,Light Snow,300,2012-11-30 10:52:00
1:54 AM,15.1,10.0,80,29.84,8.0,WNW,10.4,-,0.00,Snow,Light Snow,300,2012-11-30 10:54:00
2:54 AM,15.1,10.0,80,29.84,7.0,WNW,11.5,-,0.00,Snow,Light Snow,290,2012-11-30 11:54:00
3:11 AM,15.8,10.4,79,29.83,7.0,NW,13.8,-,0.00,Snow,Light Snow,310,2012-11-30 12:11:00
3:54 AM,15.1,9.0,77,29.83,10.0,NW,11.5,-,0.00,,Overcast,310,2012-11-30 12:54:00
4:54 AM,15.1,6.1,68,29.83,10.0,WNW,9.2,-,N/A,,Overcast,300,2012-11-30 13:54:00
5:54 AM,15.1,6.1,68,29.83,10.0,WNW,12.7,-,N/A,,Overcast,290,2012-11-30 14:54:00
6:54 AM,14.0,5.0,67,29.82,10.0,NW,9.2,-,N/A,,Mostly Cloudy,310,2012-11-30 15:54:00
7:54 AM,14.0,3.9,64,29.83,10.0,NW,11.5,-,N/A,,Mostly Cloudy,320,2012-11-30 16:54:00
8:54 AM,14.0,3.0,62,29.82,10.0,NW,9.2,-,N/A,,Partly Cloudy,320,2012-11-30 17:54:00
9:54 AM,14.0,1.9,59,29.83,10.0,NW,10.4,-,N/A,,Clear,320,2012-11-30 18:54:00
10:54 AM,15.1,1.9,56,29.82,10.0,NW,11.5,-,N/A,,Overcast,320,2012-11-30 19:54:00
11:54 AM,16.0,1.0,52,29.81,10.0,NNW,10.4,18.4,N/A,,Partly Cloudy,330,2012-11-30 20:54:00
12:54 PM,16.0,1.0,52,29.79,10.0,NW,11.5,20.7,N/A,,Partly Cloudy,320,2012-11-30 21:54:00
1:54 PM,16.0,1.0,52,29.78,10.0,NNW,10.4,16.1,N/A,,Clear,340,2012-11-30 22:54:00
2:54 PM,16.0,-0.0,49,29.78,10.0,NW,10.4,-,N/A,,Mostly Cloudy,310,2012-11-30 23:54:00
3:54 PM,16.0,-0.9,47,29.78,10.0,NNW,6.9,18.4,N/A,,Scattered Clouds,330,2012-12-01 00:54:00
4:54 PM,15.1,-0.9,49,29.77,10.0,Variable,5.8,-,N/A,,Overcast,0,2012-12-01 01:54:00
5:54 PM,15.1,-0.9,49,29.77,10.0,Variable,5.8,-,N/A,,Mostly Cloudy,0,2012-12-01 02:54:00
6:54 PM,15.1,-2.9,45,29.77,10.0,NNW,9.2,18.4,N/A,,Mostly Cloudy,330,2012-12-01 03:54:00
7:54 PM,15.1,-2.0,47,29.76,10.0,NW,10.4,16.1,N/A,,Overcast,320,2012-12-01 04:54:00
8:54 PM,14.0,-2.0,49,29.75,10.0,North,8.1,-,N/A,,Overcast,360,2012-12-01 05:54:00
9:54 PM,14.0,-4.0,45,29.75,10.0,WNW,12.7,20.7,N/A,,Clear,300,2012-12-01 06:54:00
10:54 PM,14.0,-2.9,47,29.75,10.0,NNW,11.5,-,N/A,,Scattered Clouds,330,2012-12-01 07:54:00
11:54 PM,14.0,-2.9,47,29.75,10.0,NW,10.4,20.7,N/A,,Overcast,320,2012-12-01 08:54:00